Wetterdaten: Dienstag, 14.04.2015
Datum Zeit Temp. A. Feuchte A. Luftdruck Regen Wind Richtung Richtung Sonnenschein ET UV Solar Taupunkt Windchill Windben Empfang
14.04.2015 00:00 11,3 C 54 % 1028,4 hPa 0,0 l/m 2,9 km/h (1 Bft) SW 232 0 min 0,000 mm 0,0 UV-I 0 W/m 2,3 C 11,3 C 4,0 km/h (1 Bft) 0,00 %
14.04.2015 00:15 11,2 C 54 % 1028,2 hPa 0,0 l/m 4,0 km/h (1 Bft) W-SW 252 0 min 0,000 mm 0,0 UV-I 0 W/m 2,2 C 11,2 C 4,0 km/h (1 Bft) 0,00 %
14.04.2015 00:30 11,1 C 54 % 1028,3 hPa 0,0 l/m 0,0 km/h (0 Bft) S-SW 197 0 min 0,000 mm 0,0 UV-I 0 W/m 2,2 C 11,1 C 0,0 km/h (0 Bft) 0,00 %
14.04.2015 00:45 10,9 C 54 % 1028,5 hPa 0,0 l/m 2,9 km/h (1 Bft) S 174 0 min 0,000 mm 0,0 UV-I 0 W/m 2,0 C 10,9 C 4,0 km/h (1 Bft) 0,00 %
14.04.2015 01:00 10,9 C 54 % 1028,6 hPa 0,0 l/m 2,2 km/h (1 Bft) W-SW 254 0 min 0,000 mm 0,0 UV-I 0 W/m 2,0 C 10,9 C 4,0 km/h (1 Bft) 0,00 %
14.04.2015 01:15 10,8 C 53 % 1028,4 hPa 0,0 l/m 0,0 km/h (0 Bft) W-SW 252 0 min 0,000 mm 0,0 UV-I 0 W/m 1,6 C 10,8 C 0,0 km/h (0 Bft) 0,00 %
14.04.2015 01:30 10,8 C 51 % 1028,7 hPa 0,0 l/m 0,0 km/h (0 Bft) SW 215 0 min 0,000 mm 0,0 UV-I 0 W/m 1,1 C 10,8 C 0,0 km/h (0 Bft) 0,00 %
14.04.2015 01:45 10,7 C 51 % 1028,7 hPa 0,0 l/m 0,0 km/h (0 Bft) S 183 0 min 0,000 mm 0,0 UV-I 0 W/m 1,0 C 10,7 C 0,0 km/h (0 Bft) 0,00 %
14.04.2015 02:00 10,6 C 52 % 1028,9 hPa 0,0 l/m 0,4 km/h (0 Bft) SO 129 0 min 0,000 mm 0,0 UV-I 0 W/m 1,2 C 10,6 C 4,0 km/h (1 Bft) 0,00 %
14.04.2015 02:15 10,5 C 53 % 1028,7 hPa 0,0 l/m 0,0 km/h (0 Bft) S-SW 192 0 min 0,000 mm 0,0 UV-I 0 W/m 1,3 C 10,5 C 0,0 km/h (0 Bft) 0,00 %
14.04.2015 02:30 10,2 C 57 % 1029,1 hPa 0,0 l/m 0,0 km/h (0 Bft) S 191 0 min 0,000 mm 0,0 UV-I 0 W/m 2,1 C 10,2 C 0,0 km/h (0 Bft) 0,00 %
14.04.2015 02:45 9,7 C 50 % 1029,0 hPa 0,0 l/m 2,2 km/h (1 Bft) O-SO 109 0 min 0,000 mm 0,0 UV-I 0 W/m -0,2 C 9,7 C 4,0 km/h (1 Bft) 0,00 %
14.04.2015 03:00 9,2 C 52 % 1029,3 hPa 0,0 l/m 0,0 km/h (0 Bft) S 180 0 min 0,000 mm 0,0 UV-I 0 W/m -0,1 C 9,2 C 0,0 km/h (0 Bft) 0,00 %
14.04.2015 03:15 8,9 C 52 % 1029,3 hPa 0,0 l/m 0,7 km/h (0 Bft) O-SO 104 0 min 0,000 mm 0,0 UV-I 0 W/m -0,4 C 8,9 C 4,0 km/h (1 Bft) 0,00 %
14.04.2015 03:30 8,7 C 50 % 1029,5 hPa 0,0 l/m 1,4 km/h (1 Bft) S-SW 209 0 min 0,000 mm 0,0 UV-I 0 W/m -1,1 C 8,7 C 4,0 km/h (1 Bft) 0,00 %
14.04.2015 03:45 8,4 C 53 % 1029,3 hPa 0,0 l/m 0,7 km/h (0 Bft) O 92 0 min 0,000 mm 0,0 UV-I 0 W/m -0,6 C 8,4 C 4,0 km/h (1 Bft) 0,00 %
14.04.2015 04:00 8,2 C 51 % 1029,5 hPa 0,0 l/m 0,0 km/h (0 Bft) S 173 0 min 0,000 mm 0,0 UV-I 0 W/m -1,3 C 8,2 C 0,0 km/h (0 Bft) 0,00 %
14.04.2015 04:15 8,1 C 50 % 1029,4 hPa 0,0 l/m 0,0 km/h (0 Bft) S 173 0 min 0,000 mm 0,0 UV-I 0 W/m -1,7 C 8,1 C 0,0 km/h (0 Bft) 0,00 %
14.04.2015 04:30 8,0 C 54 % 1029,5 hPa 0,0 l/m 0,0 km/h (0 Bft) S 183 0 min 0,000 mm 0,0 UV-I 0 W/m -0,7 C 8,0 C 0,0 km/h (0 Bft) 0,00 %
14.04.2015 04:45 7,7 C 52 % 1029,7 hPa 0,0 l/m 0,0 km/h (0 Bft) S 173 0 min 0,000 mm 0,0 UV-I 0 W/m -1,5 C 7,7 C 0,0 km/h (0 Bft) 0,00 %
14.04.2015 05:00 7,8 C 49 % 1029,7 hPa 0,0 l/m 0,0 km/h (0 Bft) S 186 0 min 0,000 mm 0,0 UV-I 0 W/m -2,2 C 7,8 C 0,0 km/h (0 Bft) 0,00 %
14.04.2015 05:15 7,7 C 53 % 1029,6 hPa 0,0 l/m 0,0 km/h (0 Bft) S 180 0 min 0,000 mm 0,0 UV-I 0 W/m -1,3 C 7,7 C 0,0 km/h (0 Bft) 0,00 %
14.04.2015 05:30 7,5 C 51 % 1029,5 hPa 0,0 l/m 0,0 km/h (0 Bft) S 179 0 min 0,000 mm 0,0 UV-I 0 W/m -2,0 C 7,5 C 0,0 km/h (0 Bft) 0,00 %
14.04.2015 05:45 7,3 C 50 % 1029,3 hPa 0,0 l/m 0,0 km/h (0 Bft) S 175 0 min 0,000 mm 0,0 UV-I 0 W/m -2,4 C 7,3 C 0,0 km/h (0 Bft) 0,00 %
14.04.2015 06:00 7,0 C 53 % 1029,6 hPa 0,0 l/m 0,0 km/h (0 Bft) S 186 0 min 0,000 mm 0,0 UV-I 0 W/m -1,9 C 7,0 C 0,0 km/h (0 Bft) 0,00 %
14.04.2015 06:15 6,5 C 56 % 1029,5 hPa 0,0 l/m 0,0 km/h (0 Bft) S 181 0 min 0,000 mm 0,0 UV-I 0 W/m -1,6 C 6,5 C 0,0 km/h (0 Bft) 0,00 %
14.04.2015 06:30 6,3 C 55 % 1029,9 hPa 0,0 l/m 0,0 km/h (0 Bft) S 185 0 min 0,000 mm 0,0 UV-I 2 W/m -2,1 C 6,3 C 0,0 km/h (0 Bft) 0,00 %
14.04.2015 06:45 6,5 C 58 % 1029,8 hPa 0,0 l/m 0,0 km/h (0 Bft) S 185 0 min 0,000 mm 0,0 UV-I 20 W/m -1,2 C 6,5 C 0,0 km/h (0 Bft) 0,00 %
14.04.2015 07:00 6,8 C 56 % 1030,0 hPa 0,0 l/m 0,0 km/h (0 Bft) S 185 0 min 0,000 mm 0,0 UV-I 25 W/m -1,4 C 6,8 C 0,0 km/h (0 Bft) 0,00 %
14.04.2015 07:15 7,1 C 62 % 1030,1 hPa 0,0 l/m 0,0 km/h (0 Bft) S 186 0 min 0,000 mm 0,0 UV-I 26 W/m 0,3 C 7,1 C 0,0 km/h (0 Bft) 0,00 %
14.04.2015 07:30 7,3 C 61 % 1030,3 hPa 0,0 l/m 0,0 km/h (0 Bft) S 186 0 min 0,000 mm 0,0 UV-I 39 W/m 0,3 C 7,3 C 0,0 km/h (0 Bft) 0,00 %
14.04.2015 07:45 7,3 C 63 % 1030,4 hPa 0,0 l/m 0,0 km/h (0 Bft) S 177 0 min 0,000 mm 1,0 UV-I 50 W/m 0,7 C 7,3 C 0,0 km/h (0 Bft) 0,00 %
14.04.2015 08:00 7,8 C 56 % 1030,1 hPa 0,0 l/m 0,0 km/h (0 Bft) SO 145 0 min 0,000 mm 1,0 UV-I 93 W/m -0,4 C 7,8 C 0,0 km/h (0 Bft) 0,00 %
14.04.2015 08:15 8,7 C 52 % 1029,7 hPa 0,0 l/m 0,0 km/h (0 Bft) S 174 0 min 0,000 mm 1,0 UV-I 131 W/m -0,6 C 8,7 C 0,0 km/h (0 Bft) 0,00 %
14.04.2015 08:30 9,6 C 51 % 1029,7 hPa 0,0 l/m 0,0 km/h (0 Bft) S 185 0 min 0,000 mm 1,0 UV-I 152 W/m -0,0 C 9,6 C 0,0 km/h (0 Bft) 0,00 %
14.04.2015 08:45 10,2 C 51 % 1029,6 hPa 0,0 l/m 0,0 km/h (0 Bft) S 189 0 min 0,000 mm 2,0 UV-I 186 W/m 0,5 C 10,2 C 0,0 km/h (0 Bft) 0,00 %
14.04.2015 09:00 10,7 C 52 % 1029,4 hPa 0,0 l/m 2,2 km/h (1 Bft) SW 233 0 min 0,000 mm 2,0 UV-I 213 W/m 1,3 C 10,7 C 4,0 km/h (1 Bft) 0,00 %
14.04.2015 09:15 11,0 C 49 % 1029,7 hPa 0,0 l/m 3,2 km/h (1 Bft) W-SW 256 0 min 0,000 mm 2,0 UV-I 240 W/m 0,7 C 11,0 C 4,0 km/h (1 Bft) 0,00 %
14.04.2015 09:30 11,5 C 48 % 1029,4 hPa 0,0 l/m 2,9 km/h (1 Bft) W-SW 256 15 min 0,000 mm 2,0 UV-I 296 W/m 0,9 C 11,5 C 4,0 km/h (1 Bft) 0,00 %
14.04.2015 09:45 11,8 C 48 % 1029,3 hPa 0,0 l/m 0,7 km/h (0 Bft) SW 215 0 min 0,000 mm 2,0 UV-I 251 W/m 1,2 C 11,8 C 4,0 km/h (1 Bft) 0,00 %
14.04.2015 10:00 12,4 C 48 % 1029,4 hPa 0,0 l/m 0,0 km/h (0 Bft) S-SW 197 0 min 0,000 mm 3,0 UV-I 300 W/m 1,7 C 12,4 C 0,0 km/h (0 Bft) 0,00 %
14.04.2015 10:15 12,7 C 47 % 1029,3 hPa 0,0 l/m 2,2 km/h (1 Bft) W-SW 249 15 min 0,000 mm 2,0 UV-I 363 W/m 1,7 C 12,7 C 4,0 km/h (1 Bft) 0,00 %
14.04.2015 10:30 13,1 C 45 % 1029,2 hPa 0,0 l/m 2,2 km/h (1 Bft) SW 221 0 min 0,000 mm 3,0 UV-I 317 W/m 1,4 C 13,1 C 4,0 km/h (1 Bft) 0,00 %
14.04.2015 10:45 13,9 C 42 % 1029,0 hPa 0,0 l/m 0,4 km/h (0 Bft) S-SW 199 15 min 0,000 mm 3,0 UV-I 380 W/m 1,2 C 13,9 C 4,0 km/h (1 Bft) 0,00 %
14.04.2015 11:00 14,1 C 43 % 1028,9 hPa 0,0 l/m 7,2 km/h (2 Bft) SW 235 15 min 0,000 mm 3,0 UV-I 376 W/m 1,7 C 13,6 C 11,9 km/h (2 Bft) 0,00 %
14.04.2015 11:15 14,4 C 41 % 1028,7 hPa 0,0 l/m 0,4 km/h (0 Bft) SW 226 15 min 0,000 mm 4,0 UV-I 418 W/m 1,3 C 14,4 C 4,0 km/h (1 Bft) 0,00 %
14.04.2015 11:30 14,4 C 40 % 1028,5 hPa 0,0 l/m 1,4 km/h (1 Bft) W-SW 250 15 min 0,000 mm 4,0 UV-I 498 W/m 1,0 C 14,4 C 4,0 km/h (1 Bft) 0,00 %
14.04.2015 11:45 15,2 C 40 % 1028,2 hPa 0,0 l/m 1,4 km/h (1 Bft) W-SW 256 15 min 0,000 mm 5,0 UV-I 537 W/m 1,7 C 15,2 C 4,0 km/h (1 Bft) 0,00 %
14.04.2015 12:00 15,5 C 40 % 1028,1 hPa 0,0 l/m 0,4 km/h (0 Bft) S 187 15 min 0,000 mm 5,0 UV-I 555 W/m 2,0 C 15,5 C 4,0 km/h (1 Bft) 0,00 %
14.04.2015 12:15 15,5 C 41 % 1027,7 hPa 0,0 l/m 0,7 km/h (0 Bft) SW 232 15 min 0,000 mm 5,0 UV-I 611 W/m 2,3 C 15,5 C 4,0 km/h (1 Bft) 0,00 %
14.04.2015 12:30 15,7 C 42 % 1027,8 hPa 0,0 l/m 0,7 km/h (0 Bft) SW 234 15 min 0,000 mm 2,0 UV-I 614 W/m 2,8 C 15,7 C 4,0 km/h (1 Bft) 0,00 %
14.04.2015 12:45 15,8 C 40 % 1027,1 hPa 0,0 l/m 12,2 km/h (2 Bft) W-NW 289 0 min 0,000 mm 5,0 UV-I 209 W/m 2,2 C 13,1 C 15,8 km/h (3 Bft) 0,00 %
14.04.2015 13:00 16,5 C 40 % 1027,1 hPa 0,0 l/m 7,9 km/h (2 Bft) W-NW 294 15 min 0,000 mm 5,0 UV-I 719 W/m 2,9 C 15,7 C 11,9 km/h (2 Bft) 0,00 %
14.04.2015 13:15 16,3 C 38 % 1027,1 hPa 0,0 l/m 4,3 km/h (1 Bft) NO 42 15 min 0,000 mm 5,0 UV-I 714 W/m 2,0 C 16,3 C 7,9 km/h (2 Bft) 0,00 %
14.04.2015 13:30 16,5 C 37 % 1026,6 hPa 0,0 l/m 9,0 km/h (2 Bft) W-SW 256 15 min 0,000 mm 5,0 UV-I 671 W/m 1,8 C 15,2 C 15,8 km/h (3 Bft) 0,00 %
14.04.2015 13:45 16,5 C 36 % 1026,5 hPa 0,0 l/m 17,3 km/h (3 Bft) W-SW 254 15 min 0,000 mm 4,0 UV-I 463 W/m 1,4 C 12,4 C 19,8 km/h (3 Bft) 0,00 %
14.04.2015 14:00 16,8 C 36 % 1026,2 hPa 0,0 l/m 17,3 km/h (3 Bft) W-NW 282 15 min 0,000 mm 5,0 UV-I 623 W/m 1,7 C 12,7 C 24,1 km/h (4 Bft) 0,00 %
14.04.2015 14:15 17,1 C 36 % 1026,1 hPa 0,0 l/m 9,7 km/h (2 Bft) N-NW 348 15 min 0,000 mm 5,0 UV-I 554 W/m 1,9 C 15,6 C 15,8 km/h (3 Bft) 0,00 %
14.04.2015 14:30 17,1 C 35 % 1025,9 hPa 0,0 l/m 4,7 km/h (1 Bft) S-SW 212 15 min 0,000 mm 3,0 UV-I 578 W/m 1,5 C 17,1 C 7,9 km/h (2 Bft) 0,00 %
14.04.2015 14:45 17,6 C 35 % 1025,7 hPa 0,0 l/m 2,2 km/h (1 Bft) SW 236 15 min 0,000 mm 2,0 UV-I 753 W/m 2,0 C 17,6 C 4,0 km/h (1 Bft) 0,00 %
14.04.2015 15:00 17,7 C 37 % 1025,4 hPa 0,0 l/m 5,4 km/h (1 Bft) W-SW 256 15 min 0,000 mm 2,0 UV-I 730 W/m 2,8 C 17,7 C 7,9 km/h (2 Bft) 0,00 %
14.04.2015 15:15 17,8 C 37 % 1025,2 hPa 0,0 l/m 2,2 km/h (1 Bft) W-SW 256 15 min 0,000 mm 2,0 UV-I 742 W/m 2,9 C 17,8 C 4,0 km/h (1 Bft) 0,00 %
14.04.2015 15:30 17,9 C 36 % 1024,7 hPa 0,0 l/m 9,4 km/h (2 Bft) SW 221 15 min 0,000 mm 2,0 UV-I 771 W/m 2,6 C 16,6 C 11,9 km/h (2 Bft) 0,00 %
14.04.2015 15:45 17,1 C 36 % 1024,9 hPa 0,0 l/m 5,4 km/h (1 Bft) W-SW 256 15 min 0,000 mm 2,0 UV-I 706 W/m 1,9 C 17,1 C 7,9 km/h (2 Bft) 0,00 %
14.04.2015 16:00 17,2 C 37 % 1024,6 hPa 0,0 l/m 4,3 km/h (1 Bft) SO 142 15 min 0,000 mm 2,0 UV-I 491 W/m 2,4 C 17,2 C 7,9 km/h (2 Bft) 0,00 %
14.04.2015 16:15 17,3 C 34 % 1024,4 hPa 0,0 l/m 10,8 km/h (2 Bft) W-SW 251 15 min 0,000 mm 2,0 UV-I 543 W/m 1,3 C 15,4 C 15,8 km/h (3 Bft) 0,00 %
14.04.2015 16:30 16,7 C 37 % 1024,5 hPa 0,0 l/m 10,8 km/h (2 Bft) W-SW 256 0 min 0,000 mm 2,0 UV-I 230 W/m 1,9 C 14,7 C 11,9 km/h (2 Bft) 0,00 %
14.04.2015 16:45 17,4 C 38 % 1024,0 hPa 0,0 l/m 1,8 km/h (1 Bft) S-SW 195 15 min 0,000 mm 2,0 UV-I 274 W/m 2,9 C 17,4 C 4,0 km/h (1 Bft) 0,00 %
14.04.2015 17:00 17,4 C 39 % 1023,9 hPa 0,0 l/m 10,4 km/h (2 Bft) W-SW 256 15 min 0,000 mm 2,0 UV-I 298 W/m 3,3 C 15,6 C 15,8 km/h (3 Bft) 0,00 %
14.04.2015 17:15 17,2 C 38 % 1023,7 hPa 0,0 l/m 9,0 km/h (2 Bft) W-SW 238 15 min 0,000 mm 1,0 UV-I 302 W/m 2,8 C 16,0 C 11,9 km/h (2 Bft) 0,00 %
14.04.2015 17:30 18,0 C 37 % 1023,7 hPa 0,0 l/m 20,9 km/h (4 Bft) W-SW 256 15 min 0,000 mm 1,0 UV-I 532 W/m 3,1 C 13,4 C 28,1 km/h (4 Bft) 0,00 %
14.04.2015 17:45 17,6 C 38 % 1023,5 hPa 0,0 l/m 7,2 km/h (2 Bft) NW 325 15 min 0,000 mm 1,0 UV-I 548 W/m 3,1 C 17,2 C 11,9 km/h (2 Bft) 0,00 %
14.04.2015 18:00 17,1 C 39 % 1023,5 hPa 0,0 l/m 1,4 km/h (1 Bft) SW 222 15 min 0,000 mm 1,0 UV-I 199 W/m 3,0 C 17,1 C 4,0 km/h (1 Bft) 0,00 %
14.04.2015 18:15 16,7 C 39 % 1023,8 hPa 0,0 l/m 6,5 km/h (2 Bft) S-SW 203 0 min 0,000 mm 1,0 UV-I 136 W/m 2,7 C 16,7 C 7,9 km/h (2 Bft) 0,00 %
14.04.2015 18:30 16,5 C 41 % 1023,6 hPa 0,0 l/m 0,4 km/h (0 Bft) S 175 0 min 0,000 mm 1,0 UV-I 102 W/m 3,2 C 16,5 C 4,0 km/h (1 Bft) 0,00 %
14.04.2015 18:45 16,2 C 41 % 1023,6 hPa 0,0 l/m 6,5 km/h (2 Bft) NW 315 0 min 0,000 mm 0,0 UV-I 55 W/m 2,9 C 16,2 C 11,9 km/h (2 Bft) 0,00 %
14.04.2015 19:00 16,0 C 42 % 1023,4 hPa 0,0 l/m 5,4 km/h (1 Bft) W 266 0 min 0,000 mm 0,0 UV-I 28 W/m 3,1 C 16,0 C 7,9 km/h (2 Bft) 0,00 %
14.04.2015 19:15 15,7 C 43 % 1023,5 hPa 0,0 l/m 0,0 km/h (0 Bft) S 185 0 min 0,000 mm 0,0 UV-I 9 W/m 3,2 C 15,7 C 0,0 km/h (0 Bft) 0,00 %
14.04.2015 19:30 15,6 C 44 % 1023,4 hPa 0,0 l/m 4,3 km/h (1 Bft) W-SW 255 0 min 0,000 mm 0,0 UV-I 4 W/m 3,4 C 15,6 C 7,9 km/h (2 Bft) 0,00 %
14.04.2015 19:45 15,4 C 48 % 1023,4 hPa 0,0 l/m 2,9 km/h (1 Bft) S-SW 206 0 min 0,000 mm 0,0 UV-I 0 W/m 4,4 C 15,4 C 4,0 km/h (1 Bft) 0,00 %
14.04.2015 20:00 15,2 C 48 % 1023,7 hPa 0,0 l/m 1,8 km/h (1 Bft) S 184 0 min 0,000 mm 0,0 UV-I 0 W/m 4,3 C 15,2 C 4,0 km/h (1 Bft) 0,00 %
14.04.2015 20:15 15,0 C 49 % 1023,6 hPa 0,0 l/m 0,0 km/h (0 Bft) S-SW 193 0 min 0,000 mm 0,0 UV-I 0 W/m 4,4 C 15,0 C 0,0 km/h (0 Bft) 0,00 %
14.04.2015 20:30 14,8 C 49 % 1023,8 hPa 0,0 l/m 2,9 km/h (1 Bft) W-SW 254 0 min 0,000 mm 0,0 UV-I 0 W/m 4,2 C 14,8 C 4,0 km/h (1 Bft) 0,00 %
14.04.2015 20:45 14,7 C 49 % 1024,2 hPa 0,0 l/m 4,0 km/h (1 Bft) N-NW 341 0 min 0,000 mm 0,0 UV-I 0 W/m 4,1 C 14,7 C 7,9 km/h (2 Bft) 0,00 %
14.04.2015 21:00 14,7 C 49 % 1024,1 hPa 0,0 l/m 5,8 km/h (2 Bft) W-SW 256 0 min 0,000 mm 0,0 UV-I 0 W/m 4,1 C 14,7 C 7,9 km/h (2 Bft) 0,00 %
14.04.2015 21:15 14,7 C 48 % 1024,1 hPa 0,0 l/m 0,0 km/h (0 Bft) S-SW 208 0 min 0,000 mm 0,0 UV-I 0 W/m 3,8 C 14,7 C 0,0 km/h (0 Bft) 0,00 %
14.04.2015 21:30 14,5 C 48 % 1024,1 hPa 0,0 l/m 2,9 km/h (1 Bft) W-SW 256 0 min 0,000 mm 0,0 UV-I 0 W/m 3,6 C 14,5 C 4,0 km/h (1 Bft) 0,00 %
14.04.2015 21:45 14,6 C 48 % 1024,2 hPa 0,0 l/m 0,4 km/h (0 Bft) W-SW 255 0 min 0,000 mm 0,0 UV-I 0 W/m 3,7 C 14,6 C 4,0 km/h (1 Bft) 0,00 %
14.04.2015 22:00 14,4 C 50 % 1024,1 hPa 0,0 l/m 0,0 km/h (0 Bft) SW 222 0 min 0,000 mm 0,0 UV-I 0 W/m 4,1 C 14,4 C 0,0 km/h (0 Bft) 0,00 %
14.04.2015 22:15 14,1 C 51 % 1024,2 hPa 0,0 l/m 0,0 km/h (0 Bft) SO 136 0 min 0,000 mm 0,0 UV-I 0 W/m 4,1 C 14,1 C 0,0 km/h (0 Bft) 0,00 %
14.04.2015 22:30 13,7 C 53 % 1024,2 hPa 0,0 l/m 0,0 km/h (0 Bft) S 186 0 min 0,000 mm 0,0 UV-I 0 W/m 4,3 C 13,7 C 0,0 km/h (0 Bft) 0,00 %
14.04.2015 22:45 13,1 C 55 % 1024,3 hPa 0,0 l/m 0,0 km/h (0 Bft) S 188 0 min 0,000 mm 0,0 UV-I 0 W/m 4,3 C 13,1 C 0,0 km/h (0 Bft) 0,00 %
14.04.2015 23:00 12,5 C 59 % 1024,2 hPa 0,0 l/m 0,0 km/h (0 Bft) S 186 0 min 0,000 mm 0,0 UV-I 0 W/m 4,7 C 12,5 C 0,0 km/h (0 Bft) 0,00 %
14.04.2015 23:15 11,8 C 59 % 1024,5 hPa 0,0 l/m 0,0 km/h (0 Bft) SW 216 0 min 0,000 mm 0,0 UV-I 0 W/m 4,1 C 11,8 C 0,0 km/h (0 Bft) 0,00 %
14.04.2015 23:30 11,8 C 59 % 1024,5 hPa 0,0 l/m 0,0 km/h (0 Bft) S 174 0 min 0,000 mm 0,0 UV-I 0 W/m 4,1 C 11,8 C 0,0 km/h (0 Bft) 0,00 %
14.04.2015 23:45 11,4 C 61 % 1024,5 hPa 0,0 l/m 0,0 km/h (0 Bft) S 173 0 min 0,000 mm 0,0 UV-I 0 W/m 4,2 C 11,4 C 0,0 km/h (0 Bft) 0,00 %
_ Min-Zeit 06:30 16:15 19:00 - 00:30 - - - - - - 05:45 06:30 00:30 00:00
Minimum _ 6,3 C 34 % 1023,4 hPa - 0,0 km/h (0 Bft) - - - - - - -2,4 C 6,3 C 0,0 km/h (0 Bft) 0,00 %
_ Max-Zeit 17:30 07:45 07:45 00:00 17:30 - - 09:30 00:00 11:45 15:30 23:00 15:15 17:30 00:00
Maximum _ 18,0 C 63 % 1030,4 hPa 0,0 l/m 20,9 km/h
W-SW (4 Bft)
- - 15 min 0,000 mm 5,0 UV-I 771 W/m 4,7 C 17,8 C 28,1 km/h
W-SW (4 Bft)
0,00 %
Durchschnitt _ 12,8 C 47 % 1027,0 hPa #0,0 l/m 2,8 km/h (1 Bft) W-SW - #7:30 h #0,000 mm 2,6 UV-I 352 W/m 1,7 C 12,5 C 4,6 km/h (1 Bft) 0,00 %